Carrizo Springs, Texas
Current Conditions -  °F | °C
As of 7:15 AM on Thursday 27 Nov 2014 (Local Time) from KCZT Reporting Station
Haze Haze  
Wind Chill: 40°   Ceiling: Unl
Heat Index: 43°   Visibility: 5mi
Dew Point: 34°   Wind: 5mph
Humidity: 70%   Direction: 60°ENE
Pressure: 30.4"   Gusts: NA
Location:  28.52°N, 99.86°W
Report Text: KCZT 271315Z AUTO 06004KT 5SM HZ CLR 06/01 A3040 RMK AO2
Loading
Personal Weather Stations






























Interactive Weather Map New forecast layout! Learn more

10-Day Weather Forecast

Advertisements
Track Severe Weather on mobile